createdAt,value
2019-06-15T00:00:38.061Z,20.25
2019-06-15T00:01:38.106Z,20.30
2019-06-15T00:02:38.025Z,20.24
2019-06-15T00:03:38.112Z,20.28
2019-06-15T00:04:38.015Z,20.27
2019-06-15T00:05:38.023Z,20.30
2019-06-15T00:06:37.945Z,20.25
2019-06-15T00:07:38.042Z,20.28
2019-06-15T00:08:37.906Z,20.30
2019-06-15T00:09:37.952Z,20.31
2019-06-15T00:10:37.873Z,20.31
2019-06-15T00:11:37.953Z,20.31
2019-06-15T00:12:37.821Z,20.28
2019-06-15T00:13:37.866Z,20.31
2019-06-15T00:14:37.780Z,20.28
2019-06-15T00:15:37.759Z,20.18
2019-06-15T00:16:37.750Z,20.16
2019-06-15T00:17:37.781Z,20.21
2019-06-15T00:18:37.701Z,20.20
2019-06-15T00:19:37.690Z,20.16
2019-06-15T00:20:37.670Z,20.13
2019-06-15T00:21:37.711Z,20.16
2019-06-15T00:22:37.620Z,20.13
2019-06-15T00:23:37.624Z,20.15
2019-06-15T00:24:37.572Z,20.13
2019-06-15T00:25:37.631Z,20.08
2019-06-15T00:26:37.544Z,20.16
2019-06-15T00:27:37.539Z,20.20
2019-06-15T00:28:37.496Z,20.23
2019-06-15T00:29:37.562Z,20.21
2019-06-15T00:30:37.463Z,20.24
2019-06-15T00:31:37.431Z,20.24
2019-06-15T00:32:37.491Z,20.25
2019-06-15T00:33:37.415Z,20.23
2019-06-15T00:34:37.480Z,20.24
2019-06-15T00:35:37.352Z,20.23
2019-06-15T00:36:37.330Z,20.23
2019-06-15T00:37:37.312Z,20.25
2019-06-15T00:38:37.400Z,20.12
2019-06-15T00:39:37.283Z,20.18
2019-06-15T00:40:37.314Z,20.20
2019-06-15T00:41:37.244Z,20.12
2019-06-15T00:42:37.211Z,20.20
2019-06-15T00:43:37.241Z,20.18
2019-06-15T00:44:37.171Z,20.18
2019-06-15T00:45:37.242Z,20.10
2019-06-15T00:46:37.130Z,20.06
2019-06-15T00:47:37.110Z,19.97
2019-06-15T00:48:37.161Z,19.90
2019-06-15T00:49:37.071Z,19.88
2019-06-15T00:50:37.080Z,19.79
2019-06-15T00:51:37.031Z,19.78
2019-06-15T00:52:37.009Z,19.83
2019-06-15T00:53:37.005Z,19.73
2019-06-15T00:54:49.731Z,19.80
2019-06-15T00:55:36.946Z,19.80
2019-06-15T00:56:37.000Z,19.79
2019-06-15T00:57:36.905Z,19.78
2019-06-15T00:58:36.921Z,19.73
2019-06-15T00:59:36.863Z,19.80
2019-06-15T01:00:36.933Z,19.80
2019-06-15T01:01:36.835Z,19.83
2019-06-15T01:02:36.840Z,19.78
2019-06-15T01:03:36.841Z,19.79
2019-06-15T01:04:36.763Z,19.75
2019-06-15T01:05:36.763Z,19.76
2019-06-15T01:06:36.732Z,19.70
2019-06-15T01:07:36.772Z,19.73
2019-06-15T01:08:37.694Z,19.68
2019-06-15T01:09:36.661Z,19.68
2019-06-15T01:10:36.681Z,19.63
2019-06-15T01:11:36.611Z,19.60
2019-06-15T01:12:36.702Z,19.58
2019-06-15T01:13:36.579Z,19.55
2019-06-15T01:14:36.613Z,19.57
2019-06-15T01:15:36.543Z,19.54
2019-06-15T01:16:36.622Z,19.53
2019-06-15T01:17:36.493Z,19.38
2019-06-15T01:18:36.538Z,19.48
2019-06-15T01:19:36.532Z,19.47
2019-06-15T01:20:36.432Z,19.50
2019-06-15T01:21:36.442Z,19.43
2019-06-15T01:22:36.393Z,19.48
2019-06-15T01:23:36.463Z,19.53
2019-06-15T01:24:36.360Z,19.47
2019-06-15T01:25:36.336Z,19.51
2019-06-15T01:26:36.372Z,19.55
2019-06-15T01:27:36.282Z,19.57
2019-06-15T01:28:36.282Z,19.53
2019-06-15T01:29:36.254Z,19.51
2019-06-15T01:30:36.300Z,19.55
2019-06-15T01:31:36.201Z,19.53
2019-06-15T01:32:36.210Z,19.54
2019-06-15T01:33:36.164Z,19.55
2019-06-15T01:34:36.222Z,19.54
2019-06-15T01:35:36.112Z,19.54
2019-06-15T01:36:36.150Z,19.47
2019-06-15T01:37:36.082Z,19.60
2019-06-15T01:38:36.142Z,19.54
2019-06-15T01:39:36.042Z,19.43
2019-06-15T01:40:36.011Z,19.46
2019-06-15T01:41:36.060Z,19.53
2019-06-15T01:42:35.973Z,19.47
2019-06-15T01:43:35.970Z,19.50
2019-06-15T01:44:35.929Z,19.36
2019-06-15T01:45:35.911Z,19.40
2019-06-15T01:46:35.892Z,19.39
2019-06-15T01:47:35.895Z,19.39
2019-06-15T01:48:35.858Z,19.38
2019-06-15T01:49:35.912Z,19.36
2019-06-15T01:50:35.804Z,19.38
2019-06-15T01:51:35.783Z,19.38
2019-06-15T01:52:35.823Z,19.38
2019-06-15T01:53:35.740Z,19.42
2019-06-15T01:54:35.832Z,19.47
2019-06-15T01:55:35.701Z,19.40
2019-06-15T01:56:35.688Z,19.40
2019-06-15T01:57:35.755Z,19.39
2019-06-15T01:58:35.649Z,19.38
2019-06-15T01:59:35.661Z,19.36
2019-06-15T02:00:35.590Z,19.35
2019-06-15T02:01:35.589Z,19.38
2019-06-15T02:02:35.557Z,19.32
2019-06-15T02:03:35.592Z,19.35
2019-06-15T02:04:35.512Z,19.35
2019-06-15T02:05:35.596Z,19.29
2019-06-15T02:06:35.483Z,19.28
2019-06-15T02:07:35.511Z,19.29
2019-06-15T02:08:35.430Z,19.31
2019-06-15T02:09:35.524Z,19.29
2019-06-15T02:10:35.386Z,19.20
2019-06-15T02:11:35.433Z,19.31
2019-06-15T02:12:35.347Z,19.24
2019-06-15T02:13:35.352Z,19.24
2019-06-15T02:14:35.303Z,19.29
2019-06-15T02:15:35.352Z,19.29
2019-06-15T02:16:35.262Z,19.29
2019-06-15T02:17:35.242Z,19.31
2019-06-15T02:18:35.221Z,19.18
2019-06-15T02:19:35.274Z,19.31
2019-06-15T02:20:35.182Z,19.25
2019-06-15T02:21:35.197Z,19.24
2019-06-15T02:22:35.132Z,19.17
2019-06-15T02:23:35.206Z,19.20
2019-06-15T02:24:35.103Z,19.21
2019-06-15T02:25:36.579Z,19.11
2019-06-15T02:26:35.051Z,19.18
2019-06-15T02:27:35.124Z,19.17
2019-06-15T02:28:35.002Z,19.15
2019-06-15T02:29:35.041Z,19.15
2019-06-15T02:30:35.007Z,19.10
2019-06-15T02:31:35.051Z,19.10
2019-06-15T02:32:34.922Z,19.13
2019-06-15T02:33:34.915Z,19.02
2019-06-15T02:34:34.881Z,19.08
2019-06-15T02:35:34.963Z,19.08
2019-06-15T02:36:34.847Z,19.01
2019-06-15T02:37:34.872Z,18.99
2019-06-15T02:38:34.880Z,19.10
2019-06-15T02:39:34.774Z,19.01
2019-06-15T02:40:34.815Z,19.13
2019-06-15T02:41:34.745Z,19.01
2019-06-15T02:42:34.803Z,19.08
2019-06-15T02:43:34.691Z,19.06
2019-06-15T02:44:34.671Z,19.15
2019-06-15T02:45:34.741Z,19.14
2019-06-15T02:46:34.644Z,19.14
2019-06-15T02:47:34.631Z,19.24
2019-06-15T02:48:34.592Z,19.24
2019-06-15T02:49:34.562Z,19.21
2019-06-15T02:50:34.543Z,19.13
2019-06-15T02:51:34.572Z,19.13
2019-06-15T02:52:34.504Z,19.14
2019-06-15T02:53:34.585Z,19.06
2019-06-15T02:54:34.471Z,19.10
2019-06-15T02:55:34.440Z,19.02
2019-06-15T02:56:34.480Z,18.86
2019-06-15T02:57:34.401Z,18.82
2019-06-15T02:58:34.390Z,18.77
2019-06-15T02:59:34.351Z,18.70
2019-06-15T03:00:34.416Z,18.74
2019-06-15T03:01:34.312Z,18.76
2019-06-15T03:02:34.312Z,18.62
2019-06-15T03:03:34.262Z,18.74
2019-06-15T03:04:34.330Z,18.76
2019-06-15T03:05:34.344Z,18.77
2019-06-15T03:06:34.200Z,18.64
2019-06-15T03:07:34.243Z,18.72
2019-06-15T03:08:34.169Z,18.68
2019-06-15T03:09:34.163Z,18.64
2019-06-15T03:10:34.122Z,18.67
2019-06-15T03:11:34.104Z,18.73
2019-06-15T03:12:34.172Z,18.70
2019-06-15T03:13:34.054Z,18.55
2019-06-15T03:14:34.081Z,18.55
2019-06-15T03:15:34.011Z,18.65
2019-06-15T03:16:34.103Z,18.52
2019-06-15T03:17:33.976Z,18.61
2019-06-15T03:18:34.011Z,18.55
2019-06-15T03:19:33.920Z,18.61
2019-06-15T03:20:33.924Z,18.65
2019-06-15T03:21:33.889Z,18.65
2019-06-15T03:22:33.931Z,18.68
2019-06-15T03:23:33.910Z,18.65
2019-06-15T03:24:33.853Z,18.61
2019-06-15T03:25:33.805Z,18.67
2019-06-15T03:26:33.771Z,18.61
2019-06-15T03:27:33.751Z,18.64
2019-06-15T03:28:33.764Z,18.64
2019-06-15T03:29:33.713Z,18.64
2019-06-15T03:30:33.882Z,18.57
2019-06-15T03:31:33.690Z,18.55
2019-06-15T03:32:33.693Z,18.67
2019-06-15T03:33:33.621Z,18.68
2019-06-15T03:34:33.703Z,18.77
2019-06-15T03:35:33.582Z,18.74
2019-06-15T03:36:33.617Z,18.70
2019-06-15T03:37:33.543Z,18.64
2019-06-15T03:38:40.835Z,18.58
2019-06-15T03:40:37.571Z,18.44
2019-06-15T03:41:37.481Z,18.50
2019-06-15T03:43:30.511Z,18.43
2019-06-15T03:44:30.430Z,18.42
2019-06-15T03:46:34.534Z,18.28
2019-06-15T03:47:34.503Z,18.15
2019-06-15T03:49:38.556Z,18.21
2019-06-15T03:50:38.450Z,18.18
2019-06-15T03:52:42.492Z,18.10
2019-06-15T03:53:42.463Z,18.10
2019-06-15T03:55:46.570Z,18.02
2019-06-15T03:56:46.484Z,18.09
2019-06-15T03:58:50.587Z,17.99
2019-06-15T03:59:50.502Z,18.02
2019-06-15T04:01:54.590Z,17.97
2019-06-15T04:02:54.512Z,17.91
2019-06-15T04:04:58.563Z,18.00
2019-06-15T04:05:58.582Z,17.95
2019-06-15T04:08:02.611Z,17.97
2019-06-15T04:09:02.540Z,17.82
2019-06-15T04:11:06.634Z,17.82
2019-06-15T04:12:06.542Z,17.87
2019-06-15T04:14:10.595Z,17.82
2019-06-15T04:15:10.551Z,17.82
2019-06-15T04:17:14.662Z,17.88
2019-06-15T04:18:14.569Z,17.87
2019-06-15T04:20:18.663Z,17.84
2019-06-15T04:21:18.579Z,17.84
2019-06-15T04:23:11.513Z,17.82
2019-06-15T04:24:11.430Z,17.82
2019-06-15T04:26:15.531Z,17.87
2019-06-15T04:27:15.440Z,17.82
2019-06-15T04:29:08.602Z,17.82
2019-06-15T04:30:08.551Z,17.76
2019-06-15T04:32:12.606Z,17.82
2019-06-15T04:33:12.512Z,17.82
2019-06-15T04:35:16.619Z,17.74
2019-06-15T04:36:16.536Z,17.76
2019-06-15T04:38:20.620Z,17.82
2019-06-15T04:39:20.536Z,17.82
2019-06-15T04:41:24.630Z,17.85
2019-06-15T04:42:24.564Z,17.76
2019-06-15T04:44:28.646Z,17.85
2019-06-15T04:45:28.562Z,17.87
2019-06-15T04:47:32.662Z,17.97
2019-06-15T04:48:32.571Z,17.81
2019-06-15T04:50:36.674Z,17.84
2019-06-15T04:51:36.645Z,17.95
2019-06-15T04:53:29.523Z,17.89
2019-06-15T04:54:29.453Z,17.79
2019-06-15T04:56:22.582Z,17.87
2019-06-15T04:57:22.502Z,17.87
2019-06-15T04:59:26.955Z,17.84
2019-06-15T05:00:26.912Z,17.85
2019-06-15T05:02:31.022Z,17.95
2019-06-15T05:03:30.921Z,17.84
2019-06-15T05:05:35.033Z,17.84
2019-06-15T05:06:34.940Z,17.82
2019-06-15T05:08:28.081Z,17.85
2019-06-15T05:09:28.002Z,17.82
2019-06-15T05:11:32.093Z,17.84
2019-06-15T05:12:32.000Z,17.97
2019-06-15T05:14:36.122Z,17.97
2019-06-15T05:15:36.022Z,17.97
2019-06-15T05:17:40.121Z,17.89
2019-06-15T05:18:40.032Z,17.99
2019-06-15T05:20:44.130Z,18.02
2019-06-15T05:21:44.041Z,18.10
2019-06-15T05:23:36.974Z,18.04
2019-06-15T05:24:36.957Z,18.06
2019-06-15T05:26:40.990Z,18.17
2019-06-15T05:27:40.912Z,18.12
2019-06-15T05:29:45.012Z,18.22
2019-06-15T05:30:44.922Z,18.19
2019-06-15T05:32:49.023Z,18.27
2019-06-15T05:33:48.932Z,18.31
2019-06-15T05:35:52.972Z,18.33
2019-06-15T05:36:53.005Z,18.39
2019-06-15T05:38:57.042Z,18.36
2019-06-15T05:39:56.972Z,18.40
2019-06-15T05:42:01.050Z,18.54
2019-06-15T05:43:00.997Z,18.44
2019-06-15T05:45:05.071Z,18.65
2019-06-15T05:46:05.000Z,18.64
2019-06-15T05:48:09.081Z,18.70
2019-06-15T05:49:09.003Z,18.72
2019-06-15T05:51:02.152Z,18.72
2019-06-15T05:52:02.053Z,18.73
2019-06-15T05:53:55.189Z,18.73
2019-06-15T05:54:55.116Z,18.62
2019-06-15T05:56:48.256Z,18.73
2019-06-15T05:57:48.156Z,18.72
2019-06-15T05:59:52.261Z,18.76
2019-06-15T06:00:52.240Z,18.72
2019-06-15T06:02:56.293Z,18.76
2019-06-15T06:03:56.180Z,18.82
2019-06-15T06:06:00.232Z,18.82
2019-06-15T06:07:00.204Z,18.76
2019-06-15T06:09:04.314Z,18.95
2019-06-15T06:10:04.212Z,18.84
2019-06-15T06:12:08.323Z,18.99
2019-06-15T06:13:08.225Z,19.05
2019-06-15T06:15:12.320Z,19.14
2019-06-15T06:16:12.232Z,19.28
2019-06-15T06:18:16.330Z,19.36
2019-06-15T06:19:16.252Z,19.42
2019-06-15T06:21:20.347Z,19.53
2019-06-15T06:22:20.263Z,19.35
2019-06-15T06:24:24.310Z,19.48
2019-06-15T06:25:24.332Z,19.48
2019-06-15T06:27:17.375Z,19.65
2019-06-15T06:28:17.332Z,19.61
2019-06-15T06:30:21.371Z,19.55
2019-06-15T06:31:21.391Z,19.54
2019-06-15T06:33:15.305Z,19.57
2019-06-15T06:34:14.202Z,19.47
2019-06-15T06:36:18.294Z,19.63
2019-06-15T06:37:18.211Z,19.61
2019-06-15T06:39:22.300Z,19.61
2019-06-15T06:40:22.225Z,19.78
2019-06-15T06:42:26.314Z,19.79
2019-06-15T06:43:26.297Z,19.78
2019-06-15T06:45:19.374Z,19.90
2019-06-15T06:46:19.303Z,19.91
2019-06-15T06:48:23.392Z,20.02
2019-06-15T06:49:23.301Z,20.02
2019-06-15T06:51:27.404Z,19.94
2019-06-15T06:52:27.310Z,20.15
2019-06-15T06:54:31.418Z,20.16
2019-06-15T06:55:31.346Z,20.23
2019-06-15T06:57:35.421Z,20.23
2019-06-15T06:58:35.355Z,20.23
2019-06-15T07:00:39.392Z,20.13
2019-06-15T07:01:39.409Z,20.10
2019-06-15T07:03:32.427Z,20.15
2019-06-15T07:04:32.302Z,20.16
2019-06-15T07:06:36.392Z,20.09
2019-06-15T07:07:36.312Z,20.16
2019-06-15T07:09:40.413Z,19.98
2019-06-15T07:10:40.336Z,20.00
2019-06-15T07:12:33.473Z,20.00
2019-06-15T07:13:33.398Z,20.02
2019-06-15T07:15:37.482Z,20.06
2019-06-15T07:16:37.391Z,20.08
2019-06-15T07:18:41.493Z,20.08
2019-06-15T07:19:41.412Z,20.12
2019-06-15T07:21:45.515Z,20.24
2019-06-15T07:22:45.440Z,20.28
2019-06-15T07:24:49.525Z,20.47
2019-06-15T07:25:49.430Z,20.28
2019-06-15T07:28:07.218Z,20.38
2019-06-15T07:28:53.453Z,20.38
2019-06-15T07:30:57.561Z,20.56
2019-06-15T07:31:57.461Z,20.50
2019-06-15T07:33:50.499Z,20.58
2019-06-15T07:34:50.413Z,20.62
2019-06-15T07:36:54.511Z,20.59
2019-06-15T07:37:54.432Z,20.74
2019-06-15T07:39:58.546Z,20.58
2019-06-15T07:40:58.443Z,20.59
2019-06-15T07:43:02.557Z,20.62
2019-06-15T07:44:02.457Z,20.64
2019-06-15T07:45:55.595Z,20.50
2019-06-15T07:46:55.511Z,20.28
2019-06-15T07:48:59.612Z,20.23
2019-06-15T07:49:59.522Z,20.13
2019-06-15T07:51:52.681Z,20.02
2019-06-15T07:52:52.588Z,19.97
2019-06-15T07:54:56.673Z,19.95
2019-06-15T07:55:56.585Z,19.98
2019-06-15T07:57:49.822Z,20.02
2019-06-15T07:58:49.714Z,20.00
2019-06-15T08:00:55.190Z,19.90
2019-06-15T08:01:55.143Z,19.91
2019-06-15T08:03:47.984Z,19.95
2019-06-15T08:04:47.875Z,19.84
2019-06-15T08:06:52.102Z,19.60
2019-06-15T08:07:51.902Z,19.54
2019-06-15T08:09:56.011Z,19.55
2019-06-15T08:10:55.922Z,19.47
2019-06-15T08:12:49.285Z,19.50
2019-06-15T08:13:49.083Z,19.47
2019-06-15T08:15:53.292Z,19.39
2019-06-15T08:16:53.094Z,19.35
2019-06-15T08:18:57.706Z,19.43
2019-06-15T08:19:57.503Z,19.39
2019-06-15T08:20:57.523Z,19.39
2019-06-15T08:21:57.500Z,19.36
2019-06-15T08:22:57.555Z,19.31
2019-06-15T08:23:57.690Z,19.29
2019-06-15T08:24:57.393Z,19.28
2019-06-15T08:25:57.386Z,19.20
2019-06-15T08:26:57.350Z,19.29
2019-06-15T08:27:57.328Z,19.23
2019-06-15T08:28:57.329Z,19.23
2019-06-15T08:29:57.292Z,19.18
2019-06-15T08:30:57.251Z,19.14
2019-06-15T08:31:57.246Z,19.14
2019-06-15T08:32:57.257Z,19.17
2019-06-15T08:33:57.194Z,19.08
2019-06-15T08:34:57.192Z,19.02
2019-06-15T08:35:57.153Z,18.97
2019-06-15T08:36:57.167Z,19.06
2019-06-15T08:37:57.138Z,18.86
2019-06-15T08:38:57.117Z,18.80
2019-06-15T08:39:57.083Z,18.65
2019-06-15T08:40:57.060Z,18.70
2019-06-15T08:41:57.125Z,18.65
2019-06-15T08:42:57.001Z,18.62
2019-06-15T08:43:56.975Z,18.44
2019-06-15T08:44:56.972Z,18.43
2019-06-15T08:45:56.928Z,18.50
2019-06-15T08:46:59.315Z,18.39
2019-06-15T08:47:56.916Z,18.37
2019-06-15T08:48:56.962Z,18.47
2019-06-15T08:49:56.871Z,18.59
2019-06-15T08:50:56.847Z,18.58
2019-06-15T08:51:56.812Z,18.61
2019-06-15T08:52:56.814Z,18.57
2019-06-15T08:53:56.766Z,18.55
2019-06-15T08:54:56.766Z,18.67
2019-06-15T08:55:56.735Z,18.58
2019-06-15T08:56:56.722Z,18.55
2019-06-15T08:57:56.690Z,18.59
2019-06-15T08:58:56.647Z,18.54
2019-06-15T08:59:56.664Z,18.55
2019-06-15T09:00:56.657Z,18.59
2019-06-15T09:01:56.646Z,18.70
2019-06-15T09:02:56.602Z,18.62
2019-06-15T09:03:56.572Z,18.68
2019-06-15T09:04:56.518Z,18.76
2019-06-15T09:05:56.511Z,18.86
2019-06-15T09:06:56.497Z,19.02
2019-06-15T09:07:56.473Z,19.20
2019-06-15T09:08:56.480Z,19.29
2019-06-15T09:09:56.451Z,19.43
2019-06-15T09:10:56.384Z,19.38
2019-06-15T09:11:56.418Z,19.51
2019-06-15T09:12:56.387Z,19.54
2019-06-15T09:13:56.354Z,19.66
2019-06-15T09:14:56.312Z,19.63
2019-06-15T09:15:56.323Z,19.60
2019-06-15T09:16:56.270Z,19.78
2019-06-15T09:17:56.264Z,19.94
2019-06-15T09:18:57.535Z,20.05
2019-06-15T09:19:56.207Z,20.20
2019-06-15T09:20:56.209Z,20.02
2019-06-15T09:21:56.200Z,20.13
2019-06-15T09:22:56.122Z,20.25
2019-06-15T09:23:56.129Z,20.51
2019-06-15T09:24:56.081Z,20.59
2019-06-15T09:25:56.079Z,20.62
2019-06-15T09:26:56.073Z,20.71
2019-06-15T09:27:56.021Z,20.76
2019-06-15T09:29:10.004Z,20.81
2019-06-15T09:29:55.980Z,20.93
2019-06-15T09:30:55.996Z,20.98
2019-06-15T09:31:55.932Z,20.99
2019-06-15T09:32:55.965Z,21.11
2019-06-15T09:33:55.911Z,21.27
2019-06-15T09:34:55.892Z,21.29
2019-06-15T09:35:55.864Z,21.39
2019-06-15T09:36:55.875Z,21.42
2019-06-15T09:37:55.807Z,21.36
2019-06-15T09:39:03.106Z,21.42
2019-06-15T09:40:59.864Z,21.51
2019-06-15T09:41:59.772Z,21.72
2019-06-15T09:44:03.862Z,21.75
2019-06-15T09:45:03.784Z,21.75
2019-06-15T09:47:07.897Z,21.92
2019-06-15T09:48:07.816Z,21.75
2019-06-15T09:50:11.899Z,21.92
2019-06-15T09:51:11.812Z,21.81
2019-06-15T09:53:04.808Z,21.94
2019-06-15T09:54:04.815Z,22.07
2019-06-15T09:56:08.862Z,22.25
2019-06-15T09:57:08.775Z,22.23
2019-06-15T09:59:25.277Z,22.46
2019-06-15T10:00:12.784Z,22.53
2019-06-15T10:02:17.011Z,22.65
2019-06-15T10:03:16.812Z,22.78
2019-06-15T10:05:20.896Z,23.02
2019-06-15T10:06:20.821Z,23.08
2019-06-15T10:08:24.915Z,22.86
2019-06-15T10:09:24.826Z,22.80
2019-06-15T10:11:28.895Z,22.99
2019-06-15T10:12:28.856Z,23.02
2019-06-15T10:14:32.887Z,23.40
2019-06-15T10:15:32.853Z,23.62
2019-06-15T10:17:36.933Z,23.72
2019-06-15T10:18:38.780Z,23.72
2019-06-15T10:20:41.103Z,23.72
2019-06-15T10:21:40.912Z,23.70
2019-06-15T10:23:33.962Z,23.55
2019-06-15T10:24:33.888Z,23.58
2019-06-15T10:26:38.924Z,23.52
2019-06-15T10:27:38.718Z,23.46
2019-06-15T10:29:43.753Z,23.47
2019-06-15T10:30:43.533Z,23.50
2019-06-15T10:32:48.564Z,23.57
2019-06-15T10:33:48.372Z,23.62
2019-06-15T10:35:53.348Z,23.75
2019-06-15T10:36:53.303Z,23.83
2019-06-15T10:38:57.414Z,24.22
2019-06-15T10:39:57.327Z,24.44
2019-06-15T10:42:01.439Z,24.44
2019-06-15T10:43:01.357Z,24.35
2019-06-15T10:45:05.441Z,24.29
2019-06-15T10:46:05.355Z,24.35
2019-06-15T10:48:09.463Z,24.22
2019-06-15T10:49:09.370Z,24.19
2019-06-15T10:51:13.472Z,24.24
2019-06-15T10:52:13.449Z,24.57
2019-06-15T10:54:17.483Z,24.37
2019-06-15T10:55:17.442Z,24.44
2019-06-15T10:57:21.454Z,24.64
2019-06-15T10:58:21.413Z,24.75
2019-06-15T11:00:25.523Z,24.83
2019-06-15T11:01:25.431Z,24.92
2019-06-15T11:03:18.526Z,25.07
2019-06-15T11:04:18.435Z,24.77
2019-06-15T11:06:22.485Z,24.42
2019-06-15T11:07:22.403Z,24.35
2019-06-15T11:09:26.501Z,24.16
2019-06-15T11:10:26.438Z,23.94
2019-06-15T11:12:45.102Z,23.98
2019-06-15T11:13:30.452Z,23.97
2019-06-15T11:15:35.352Z,23.85
2019-06-15T11:16:35.262Z,23.87
2019-06-15T11:18:40.123Z,23.77
2019-06-15T11:19:40.118Z,23.83
2019-06-15T11:21:33.357Z,23.86
2019-06-15T11:22:33.263Z,23.90
2019-06-15T11:24:37.565Z,24.00
2019-06-15T11:25:37.386Z,23.97
2019-06-15T11:27:41.681Z,23.68
2019-06-15T11:28:41.656Z,23.79
2019-06-15T11:30:45.818Z,23.71
2019-06-15T11:31:45.621Z,23.75
2019-06-15T11:33:39.693Z,23.58
2019-06-15T11:34:39.500Z,23.57
2019-06-15T11:36:43.792Z,23.47
2019-06-15T11:37:43.625Z,23.39
2019-06-15T11:39:47.821Z,23.23
2019-06-15T11:40:47.651Z,23.14
2019-06-15T11:42:51.852Z,23.09
2019-06-15T11:43:51.757Z,23.01
2019-06-15T11:45:55.942Z,22.77
2019-06-15T11:46:55.855Z,22.68
2019-06-15T11:49:00.823Z,22.74
2019-06-15T11:50:00.792Z,22.67
2019-06-15T11:52:05.662Z,22.50
2019-06-15T11:53:05.703Z,22.59
2019-06-15T11:55:09.731Z,22.74
2019-06-15T11:56:09.644Z,22.72
2019-06-15T11:58:14.561Z,22.60
2019-06-15T11:59:14.482Z,22.67
2019-06-15T12:01:19.412Z,22.60
2019-06-15T12:02:19.322Z,22.56
2019-06-15T12:04:24.267Z,22.71
2019-06-15T12:05:24.159Z,22.74
2019-06-15T12:07:29.079Z,22.92
2019-06-15T12:08:29.010Z,23.02
2019-06-15T12:10:33.024Z,23.19
2019-06-15T12:11:32.991Z,23.34
2019-06-15T12:13:26.057Z,23.53
2019-06-15T12:14:25.941Z,23.77
2019-06-15T12:16:30.875Z,24.13
2019-06-15T12:17:30.782Z,24.32
2019-06-15T12:19:35.701Z,24.54
2019-06-15T12:20:38.289Z,24.73
2019-06-15T12:22:39.738Z,24.73
2019-06-15T12:23:39.645Z,24.71
2019-06-15T12:25:44.574Z,24.44
2019-06-15T12:26:44.523Z,24.41
2019-06-15T12:28:49.437Z,24.52
2019-06-15T12:29:49.340Z,24.50
2019-06-15T12:31:54.161Z,24.71
2019-06-15T12:32:54.203Z,24.69
2019-06-15T12:34:59.062Z,24.57
2019-06-15T12:35:58.972Z,24.79
2019-06-15T12:38:03.903Z,24.97
2019-06-15T12:39:03.813Z,24.94
2019-06-15T12:41:07.917Z,25.05
2019-06-15T12:42:07.821Z,25.30
2019-06-15T12:43:07.893Z,25.50
2019-06-15T12:44:07.809Z,25.54
2019-06-15T12:45:07.802Z,25.71
2019-06-15T12:46:07.751Z,25.62
2019-06-15T12:47:07.814Z,25.72
2019-06-15T12:48:07.724Z,25.46
2019-06-15T12:49:07.833Z,25.47
2019-06-15T12:50:07.917Z,25.43
2019-06-15T12:51:07.743Z,25.49
2019-06-15T12:52:07.664Z,25.57
2019-06-15T12:53:07.656Z,25.62
2019-06-15T12:54:07.620Z,25.77
2019-06-15T12:55:07.674Z,25.71
2019-06-15T12:56:07.590Z,25.72
2019-06-15T12:57:07.683Z,25.89
2019-06-15T12:58:07.566Z,25.86
2019-06-15T12:59:07.594Z,25.87
2019-06-15T13:00:07.523Z,25.82
2019-06-15T13:01:07.616Z,25.83
2019-06-15T13:02:07.495Z,25.97
2019-06-15T13:03:07.555Z,25.54
2019-06-15T13:04:07.464Z,25.31
2019-06-15T13:05:07.546Z,25.50
2019-06-15T13:06:07.414Z,25.79
2019-06-15T13:07:07.443Z,25.97
2019-06-15T13:08:07.382Z,26.02
2019-06-15T13:09:07.372Z,26.28
2019-06-15T13:10:07.353Z,26.43
2019-06-15T13:11:07.384Z,26.65
2019-06-15T13:12:07.310Z,26.80
2019-06-15T13:13:07.387Z,26.65
2019-06-15T13:14:07.403Z,26.61
2019-06-15T13:15:07.273Z,26.58
2019-06-15T13:16:07.313Z,26.37
2019-06-15T13:17:07.240Z,26.25
2019-06-15T13:18:07.322Z,26.24
2019-06-15T13:19:07.209Z,26.32
2019-06-15T13:20:07.231Z,26.42
2019-06-15T13:21:07.172Z,26.06
2019-06-15T13:22:07.242Z,25.90
2019-06-15T13:23:07.161Z,25.84
2019-06-15T13:24:07.161Z,25.94
2019-06-15T13:25:07.167Z,25.99
2019-06-15T13:26:07.092Z,25.99
2019-06-15T13:27:07.172Z,26.01
2019-06-15T13:28:07.082Z,26.09
2019-06-15T13:29:07.091Z,26.27
2019-06-15T13:30:07.098Z,26.02
2019-06-15T13:31:17.803Z,25.83
2019-06-15T13:32:06.995Z,25.57
2019-06-15T13:33:07.016Z,25.20
2019-06-15T13:34:06.952Z,24.88
2019-06-15T13:35:07.047Z,25.02
2019-06-15T13:36:06.957Z,25.01
2019-06-15T13:37:06.942Z,25.02
2019-06-15T13:38:06.895Z,25.02
2019-06-15T13:39:06.966Z,25.01
2019-06-15T13:40:06.863Z,24.97
2019-06-15T13:41:06.843Z,25.09
2019-06-15T13:42:06.872Z,25.24
2019-06-15T13:43:06.813Z,25.34
2019-06-15T13:44:06.898Z,25.39
2019-06-15T13:45:06.786Z,25.50
2019-06-15T13:46:06.754Z,25.62
2019-06-15T13:47:06.810Z,25.64
2019-06-15T13:48:06.723Z,25.52
2019-06-15T13:49:06.832Z,25.20
2019-06-15T13:50:06.741Z,25.00
2019-06-15T13:51:06.700Z,24.76
2019-06-15T13:52:06.674Z,24.53
2019-06-15T13:53:06.755Z,24.44
2019-06-15T13:54:06.623Z,24.24
2019-06-15T13:55:06.663Z,24.07
2019-06-15T13:56:06.595Z,24.08
2019-06-15T13:57:06.581Z,24.17
2019-06-15T13:58:06.588Z,24.13
2019-06-15T13:59:06.542Z,24.34
2019-06-15T14:00:06.619Z,24.73
2019-06-15T14:01:06.505Z,25.24
2019-06-15T14:02:06.499Z,25.54
2019-06-15T14:03:06.511Z,25.80
2019-06-15T14:04:06.458Z,25.77
2019-06-15T14:05:06.528Z,25.91
2019-06-15T14:06:06.423Z,25.61
2019-06-15T14:07:06.400Z,25.39
2019-06-15T14:08:06.382Z,25.16
2019-06-15T14:09:06.463Z,25.05
2019-06-15T14:10:06.352Z,25.02
2019-06-15T14:11:06.362Z,25.07
2019-06-15T14:12:06.325Z,25.22
2019-06-15T14:13:06.310Z,24.85
2019-06-15T14:14:06.384Z,24.87
2019-06-15T14:15:06.264Z,25.13
2019-06-15T14:16:06.303Z,25.35
2019-06-15T14:17:06.231Z,25.64
2019-06-15T14:18:06.217Z,25.71
2019-06-15T14:19:06.208Z,25.90
2019-06-15T14:20:06.243Z,25.83
2019-06-15T14:21:06.163Z,25.75
2019-06-15T14:22:06.251Z,25.90
2019-06-15T14:23:06.136Z,26.24
2019-06-15T14:24:06.163Z,26.46
2019-06-15T14:25:06.101Z,26.21
2019-06-15T14:26:06.179Z,25.75
2019-06-15T14:27:06.083Z,25.44
2019-06-15T14:28:06.092Z,25.32
2019-06-15T14:29:06.086Z,25.46
2019-06-15T14:30:06.166Z,25.83
2019-06-15T14:31:06.017Z,26.18
2019-06-15T14:32:07.055Z,26.29
2019-06-15T14:33:05.966Z,26.46
2019-06-15T14:34:05.966Z,26.55
2019-06-15T14:35:06.041Z,26.72
2019-06-15T14:36:05.956Z,26.83
2019-06-15T14:37:06.976Z,26.92
2019-06-15T14:38:05.903Z,27.11
2019-06-15T14:39:06.296Z,26.84
2019-06-15T14:40:05.892Z,26.69
2019-06-15T14:41:05.880Z,26.68
2019-06-15T14:42:05.822Z,26.73
2019-06-15T14:43:06.001Z,26.77
2019-06-15T14:44:05.794Z,27.01
2019-06-15T14:45:05.772Z,27.06
2019-06-15T14:46:05.753Z,27.19
2019-06-15T14:47:05.821Z,27.19
2019-06-15T14:48:05.743Z,26.94
2019-06-15T14:49:05.737Z,26.81
2019-06-15T14:50:05.694Z,26.73
2019-06-15T14:51:05.753Z,26.42
2019-06-15T14:52:05.708Z,26.12
2019-06-15T14:53:05.663Z,26.01
2019-06-15T14:54:06.687Z,25.91
2019-06-15T14:55:07.210Z,25.82
2019-06-15T14:56:06.833Z,25.75
2019-06-15T14:57:06.820Z,25.72
2019-06-15T14:58:17.233Z,25.65
2019-06-15T14:59:16.874Z,25.83
2019-06-15T15:01:20.915Z,26.37
2019-06-15T15:02:20.835Z,26.37
2019-06-15T15:04:26.626Z,26.59
2019-06-15T15:05:27.348Z,26.57
2019-06-15T15:07:28.940Z,26.77
2019-06-15T15:08:28.863Z,27.04
2019-06-15T15:10:32.902Z,27.05
2019-06-15T15:11:32.899Z,27.05
2019-06-15T15:13:26.433Z,27.04
2019-06-15T15:14:26.120Z,27.23
2019-06-15T15:16:30.756Z,27.46
2019-06-15T15:17:30.674Z,27.54
2019-06-15T15:19:36.093Z,27.82
2019-06-15T15:20:34.681Z,27.73
2019-06-15T15:22:38.791Z,27.74
2019-06-15T15:23:38.720Z,27.73
2019-06-15T15:25:42.802Z,27.48
2019-06-15T15:26:43.793Z,27.28
2019-06-15T15:28:47.345Z,27.31
2019-06-15T15:29:46.720Z,27.36
2019-06-15T15:31:50.782Z,27.02
2019-06-15T15:32:50.742Z,27.04
2019-06-15T15:34:56.022Z,26.80
2019-06-15T15:35:54.767Z,26.58
2019-06-15T15:37:58.852Z,26.44
2019-06-15T15:39:09.369Z,26.18
2019-06-15T15:41:02.860Z,26.25
2019-06-15T15:42:02.802Z,26.27
2019-06-15T15:44:06.883Z,26.62
2019-06-15T15:45:07.289Z,26.72
2019-06-15T15:47:10.910Z,26.73
2019-06-15T15:48:10.862Z,26.84